KENV

Wendover Airport

Wendover, Utah, USA
KENV 191741Z 1918/2018 13008KT P6SM SKC FM200000 34012G18KT P6SM FEW140 FM201000 32006KT P6SM SKC
Issued Valid From Valid To
Sep-19 @ 17:41 UTC
(5 hours ago)
Sep-19 @ 18:00 UTC
(5 hours ago)
Sep-20 @ 18:00 UTC
(in 19 hours)
Sep-19 @ 18:00 to Sep-20 @ 00:00
KENV 191741Z 1918/2018 13008KT P6SM SKC
Wind Visibility Clouds
130° at 8 knots Greater than 6 miles
  • Clear skies
From Sep-20 @ 00:00 to Sep-20 @ 10:00
FM200000 34012G18KT P6SM FEW140
Wind Visibility Clouds
340° at 12 knots
 Gusting to 18 knots
Greater than 6 miles
  • Few at 14,000' AGL
From Sep-20 @ 10:00 to Sep-20 @ 18:00
FM201000 32006KT P6SM SKC
Wind Visibility Clouds
320° at 6 knots Greater than 6 miles
  • Clear skies
KENV 191741Z 1918/2018 13008KT P6SM SKC FM200000 34012G18KT P6SM FEW140 FM201000 32006KT P6SM SKC
Issued Sep-19 @ 17:41 UTC
(5 hours ago)
Valid From Sep-19 @ 18:00 UTC
(5 hours ago)
Valid To Sep-20 @ 18:00 UTC
(in 19 hours)
Sep-19 @ 18:00 - Sep-20 @ 00:00
Wind Visibility
130° at 8 knots Greater than 6 miles
Clouds
  • Clear skies
From Sep-20 @ 00:00 - Sep-20 @ 10:00
Wind Visibility
340° at 12 knots
 Gusting to 18 knots
Greater than 6 miles
Clouds
  • Few at 14,000' AGL
From Sep-20 @ 10:00 - Sep-20 @ 18:00
Wind Visibility
320° at 6 knots Greater than 6 miles
Clouds
  • Clear skies